Terminal Aerodrome Forecast
Issued by NWS Wilmington, OH

Current Version | Previous Version | Graphics & Text | Print | Product List | Glossary On
Versions: 1 2 3 4 5 6 7 8 9 10 11 12 13 14 15 16 17 18 19 20 21 22 23 24 25 26 27
202
FTUS41 KILN 221121
TAFCVG
TAF
KCVG 221121Z 2212/2318 21003KT P6SM SCT150 OVC250
     FM221400 23007KT P6SM VCTS SCT040CB BKN120
     FM230100 13004KT P6SM SCT250
     FM231300 26005KT P6SM SCT250=

USA.gov is the U.S. government's official web portal to all federal, state and local government web resources and services.